sensor_id;sensor_type;location;lat;lon;timestamp;P1;durP1;ratioP1;P2;durP2;ratioP2
35330;SDS011;21441;52.190;20.910;2023-04-25T00:01:20;20.88;;;15.07;;
35330;SDS011;21441;52.190;20.910;2023-04-25T00:03:48;17.52;;;14.00;;
35330;SDS011;21441;52.190;20.910;2023-04-25T00:06:15;21.33;;;16.45;;
35330;SDS011;21441;52.190;20.910;2023-04-25T00:08:43;17.63;;;15.30;;
35330;SDS011;21441;52.190;20.910;2023-04-25T00:11:11;20.52;;;15.40;;
35330;SDS011;21441;52.190;20.910;2023-04-25T00:13:39;18.17;;;15.05;;
35330;SDS011;21441;52.190;20.910;2023-04-25T00:16:06;18.13;;;14.82;;
35330;SDS011;21441;52.190;20.910;2023-04-25T00:18:34;20.13;;;15.32;;
35330;SDS011;21441;52.190;20.910;2023-04-25T00:21:01;18.98;;;15.00;;
35330;SDS011;21441;52.190;20.910;2023-04-25T00:23:31;18.45;;;15.45;;
35330;SDS011;21441;52.190;20.910;2023-04-25T00:26:00;19.63;;;14.55;;
35330;SDS011;21441;52.190;20.910;2023-04-25T00:28:28;19.05;;;15.70;;
35330;SDS011;21441;52.190;20.910;2023-04-25T00:30:56;18.88;;;15.80;;
35330;SDS011;21441;52.190;20.910;2023-04-25T00:33:23;18.42;;;16.23;;
35330;SDS011;21441;52.190;20.910;2023-04-25T00:35:50;20.90;;;17.20;;
35330;SDS011;21441;52.190;20.910;2023-04-25T00:38:18;22.13;;;16.30;;
35330;SDS011;21441;52.190;20.910;2023-04-25T00:40:45;19.42;;;15.40;;
35330;SDS011;21441;52.190;20.910;2023-04-25T00:43:12;21.08;;;16.35;;
35330;SDS011;21441;52.190;20.910;2023-04-25T00:45:39;21.38;;;16.05;;
35330;SDS011;21441;52.190;20.910;2023-04-25T00:48:08;19.60;;;16.05;;
35330;SDS011;21441;52.190;20.910;2023-04-25T00:50:35;21.27;;;15.43;;
35330;SDS011;21441;52.190;20.910;2023-04-25T00:53:03;22.23;;;15.90;;
35330;SDS011;21441;52.190;20.910;2023-04-25T00:55:30;19.13;;;15.23;;
35330;SDS011;21441;52.190;20.910;2023-04-25T00:58:00;22.25;;;16.75;;
35330;SDS011;21441;52.190;20.910;2023-04-25T01:00:27;19.23;;;16.00;;
35330;SDS011;21441;52.190;20.910;2023-04-25T01:02:55;20.15;;;15.30;;
35330;SDS011;21441;52.190;20.910;2023-04-25T01:05:24;19.83;;;14.82;;
35330;SDS011;21441;52.190;20.910;2023-04-25T01:07:51;21.42;;;15.23;;
35330;SDS011;21441;52.190;20.910;2023-04-25T01:10:18;19.48;;;15.13;;
35330;SDS011;21441;52.190;20.910;2023-04-25T01:12:46;22.45;;;16.10;;
35330;SDS011;21441;52.190;20.910;2023-04-25T01:15:13;22.55;;;15.63;;
35330;SDS011;21441;52.190;20.910;2023-04-25T01:17:40;20.73;;;14.50;;
35330;SDS011;21441;52.190;20.910;2023-04-25T01:20:09;19.00;;;15.27;;
35330;SDS011;21441;52.190;20.910;2023-04-25T01:22:40;20.17;;;15.82;;
35330;SDS011;21441;52.190;20.910;2023-04-25T01:25:07;16.48;;;13.15;;
35330;SDS011;21441;52.190;20.910;2023-04-25T01:27:35;19.30;;;14.77;;
35330;SDS011;21441;52.190;20.910;2023-04-25T01:30:03;22.55;;;15.63;;
35330;SDS011;21441;52.190;20.910;2023-04-25T01:32:32;20.83;;;15.52;;
35330;SDS011;21441;52.190;20.910;2023-04-25T01:35:03;21.02;;;14.75;;
35330;SDS011;21441;52.190;20.910;2023-04-25T01:37:35;19.08;;;14.60;;
35330;SDS011;21441;52.190;20.910;2023-04-25T01:40:04;22.75;;;14.68;;
35330;SDS011;21441;52.190;20.910;2023-04-25T01:42:33;17.05;;;12.73;;
35330;SDS011;21441;52.190;20.910;2023-04-25T01:45:00;18.90;;;14.80;;
35330;SDS011;21441;52.190;20.910;2023-04-25T01:47:28;17.63;;;13.45;;
35330;SDS011;21441;52.190;20.910;2023-04-25T01:49:55;22.92;;;15.38;;
35330;SDS011;21441;52.190;20.910;2023-04-25T01:52:22;19.15;;;13.63;;
35330;SDS011;21441;52.190;20.910;2023-04-25T01:54:50;18.02;;;13.95;;
35330;SDS011;21441;52.190;20.910;2023-04-25T01:57:19;21.15;;;14.45;;
35330;SDS011;21441;52.190;20.910;2023-04-25T01:59:46;18.42;;;13.90;;
35330;SDS011;21441;52.190;20.910;2023-04-25T02:02:14;17.88;;;13.52;;
35330;SDS011;21441;52.190;20.910;2023-04-25T02:04:41;17.75;;;13.77;;
35330;SDS011;21441;52.190;20.910;2023-04-25T02:07:08;17.33;;;13.02;;
35330;SDS011;21441;52.190;20.910;2023-04-25T02:09:35;17.33;;;12.80;;
35330;SDS011;21441;52.190;20.910;2023-04-25T02:12:03;16.83;;;13.30;;
35330;SDS011;21441;52.190;20.910;2023-04-25T02:14:31;17.20;;;13.38;;
35330;SDS011;21441;52.190;20.910;2023-04-25T02:16:59;18.15;;;13.38;;
35330;SDS011;21441;52.190;20.910;2023-04-25T02:19:26;18.55;;;13.50;;
35330;SDS011;21441;52.190;20.910;2023-04-25T02:21:53;15.30;;;12.55;;
35330;SDS011;21441;52.190;20.910;2023-04-25T02:24:20;20.27;;;13.27;;
35330;SDS011;21441;52.190;20.910;2023-04-25T02:26:48;16.45;;;12.25;;
35330;SDS011;21441;52.190;20.910;2023-04-25T02:29:15;17.60;;;12.75;;
35330;SDS011;21441;52.190;20.910;2023-04-25T02:31:44;14.73;;;10.48;;
35330;SDS011;21441;52.190;20.910;2023-04-25T02:34:11;15.77;;;12.02;;
35330;SDS011;21441;52.190;20.910;2023-04-25T02:36:38;16.00;;;12.23;;
35330;SDS011;21441;52.190;20.910;2023-04-25T02:39:06;16.88;;;12.88;;
35330;SDS011;21441;52.190;20.910;2023-04-25T02:41:33;16.77;;;12.38;;
35330;SDS011;21441;52.190;20.910;2023-04-25T02:44:00;15.85;;;11.60;;
35330;SDS011;21441;52.190;20.910;2023-04-25T02:46:28;18.05;;;13.10;;
35330;SDS011;21441;52.190;20.910;2023-04-25T02:48:56;17.25;;;12.35;;
35330;SDS011;21441;52.190;20.910;2023-04-25T02:51:24;18.17;;;12.43;;
35330;SDS011;21441;52.190;20.910;2023-04-25T02:53:51;15.00;;;11.95;;
35330;SDS011;21441;52.190;20.910;2023-04-25T02:56:19;16.35;;;12.68;;
35330;SDS011;21441;52.190;20.910;2023-04-25T02:58:46;17.95;;;12.38;;
35330;SDS011;21441;52.190;20.910;2023-04-25T03:01:13;16.02;;;12.40;;
35330;SDS011;21441;52.190;20.910;2023-04-25T03:03:40;17.73;;;12.27;;
35330;SDS011;21441;52.190;20.910;2023-04-25T03:06:09;16.98;;;12.32;;
35330;SDS011;21441;52.190;20.910;2023-04-25T03:08:36;15.63;;;12.02;;
35330;SDS011;21441;52.190;20.910;2023-04-25T03:11:03;17.88;;;12.43;;
35330;SDS011;21441;52.190;20.910;2023-04-25T03:13:30;19.80;;;12.85;;
35330;SDS011;21441;52.190;20.910;2023-04-25T03:15:57;15.30;;;11.35;;
35330;SDS011;21441;52.190;20.910;2023-04-25T03:18:25;15.55;;;11.90;;
35330;SDS011;21441;52.190;20.910;2023-04-25T03:20:52;15.90;;;11.50;;
35330;SDS011;21441;52.190;20.910;2023-04-25T03:23:21;19.23;;;12.30;;
35330;SDS011;21441;52.190;20.910;2023-04-25T03:25:48;14.40;;;11.73;;
35330;SDS011;21441;52.190;20.910;2023-04-25T03:28:15;15.70;;;11.82;;
35330;SDS011;21441;52.190;20.910;2023-04-25T03:30:42;16.23;;;12.05;;
35330;SDS011;21441;52.190;20.910;2023-04-25T03:33:09;17.05;;;13.02;;
35330;SDS011;21441;52.190;20.910;2023-04-25T03:35:37;14.45;;;11.73;;
35330;SDS011;21441;52.190;20.910;2023-04-25T03:38:04;17.58;;;12.20;;
35330;SDS011;21441;52.190;20.910;2023-04-25T03:40:33;16.73;;;12.18;;
35330;SDS011;21441;52.190;20.910;2023-04-25T03:43:00;16.02;;;11.25;;
35330;SDS011;21441;52.190;20.910;2023-04-25T03:45:27;14.55;;;11.07;;
35330;SDS011;21441;52.190;20.910;2023-04-25T03:47:54;18.00;;;11.35;;
35330;SDS011;21441;52.190;20.910;2023-04-25T03:50:22;15.60;;;10.73;;
35330;SDS011;21441;52.190;20.910;2023-04-25T03:52:49;15.88;;;10.43;;
35330;SDS011;21441;52.190;20.910;2023-04-25T03:55:16;13.70;;;9.70;;
35330;SDS011;21441;52.190;20.910;2023-04-25T03:57:45;12.65;;;10.02;;
35330;SDS011;21441;52.190;20.910;2023-04-25T04:00:13;10.98;;;8.95;;
35330;SDS011;21441;52.190;20.910;2023-04-25T04:02:40;11.48;;;8.23;;
35330;SDS011;21441;52.190;20.910;2023-04-25T04:05:08;12.70;;;9.13;;
35330;SDS011;21441;52.190;20.910;2023-04-25T04:07:35;10.82;;;8.50;;
35330;SDS011;21441;52.190;20.910;2023-04-25T04:10:05;13.80;;;8.68;;
35330;SDS011;21441;52.190;20.910;2023-04-25T04:12:33;11.43;;;8.77;;
35330;SDS011;21441;52.190;20.910;2023-04-25T04:15:02;9.07;;;7.88;;
35330;SDS011;21441;52.190;20.910;2023-04-25T04:17:30;9.20;;;7.82;;
35330;SDS011;21441;52.190;20.910;2023-04-25T04:19:57;10.90;;;8.45;;
35330;SDS011;21441;52.190;20.910;2023-04-25T04:22:24;10.95;;;8.57;;
35330;SDS011;21441;52.190;20.910;2023-04-25T04:24:52;12.85;;;9.63;;
35330;SDS011;21441;52.190;20.910;2023-04-25T04:27:19;15.00;;;9.60;;
35330;SDS011;21441;52.190;20.910;2023-04-25T04:29:49;11.37;;;8.37;;
35330;SDS011;21441;52.190;20.910;2023-04-25T04:32:19;11.80;;;9.60;;
35330;SDS011;21441;52.190;20.910;2023-04-25T04:34:46;13.80;;;10.43;;
35330;SDS011;21441;52.190;20.910;2023-04-25T04:37:14;14.65;;;11.02;;
35330;SDS011;21441;52.190;20.910;2023-04-25T04:39:41;14.25;;;10.10;;
35330;SDS011;21441;52.190;20.910;2023-04-25T04:42:08;12.82;;;9.93;;
35330;SDS011;21441;52.190;20.910;2023-04-25T04:44:37;12.70;;;9.73;;
35330;SDS011;21441;52.190;20.910;2023-04-25T04:47:04;10.73;;;9.32;;
35330;SDS011;21441;52.190;20.910;2023-04-25T04:49:33;12.85;;;8.95;;
35330;SDS011;21441;52.190;20.910;2023-04-25T04:52:00;12.02;;;10.30;;
35330;SDS011;21441;52.190;20.910;2023-04-25T04:54:28;12.07;;;10.35;;
35330;SDS011;21441;52.190;20.910;2023-04-25T04:56:55;14.95;;;11.68;;
35330;SDS011;21441;52.190;20.910;2023-04-25T04:59:22;12.07;;;10.38;;
35330;SDS011;21441;52.190;20.910;2023-04-25T05:01:49;15.13;;;11.32;;
35330;SDS011;21441;52.190;20.910;2023-04-25T05:04:17;14.02;;;11.10;;
35330;SDS011;21441;52.190;20.910;2023-04-25T05:06:45;15.88;;;11.48;;
35330;SDS011;21441;52.190;20.910;2023-04-25T05:09:12;14.73;;;10.95;;
35330;SDS011;21441;52.190;20.910;2023-04-25T05:11:40;12.88;;;10.30;;
35330;SDS011;21441;52.190;20.910;2023-04-25T05:14:07;10.20;;;8.88;;
35330;SDS011;21441;52.190;20.910;2023-04-25T05:16:34;13.38;;;9.10;;
35330;SDS011;21441;52.190;20.910;2023-04-25T05:19:02;16.20;;;10.38;;
35330;SDS011;21441;52.190;20.910;2023-04-25T05:21:29;12.90;;;10.40;;
35330;SDS011;21441;52.190;20.910;2023-04-25T05:23:58;12.32;;;10.35;;
35330;SDS011;21441;52.190;20.910;2023-04-25T05:26:25;11.43;;;9.30;;
35330;SDS011;21441;52.190;20.910;2023-04-25T05:28:56;13.63;;;10.73;;
35330;SDS011;21441;52.190;20.910;2023-04-25T05:31:23;14.00;;;10.82;;
35330;SDS011;21441;52.190;20.910;2023-04-25T05:33:50;12.93;;;10.65;;
35330;SDS011;21441;52.190;20.910;2023-04-25T05:36:18;13.82;;;10.65;;
35330;SDS011;21441;52.190;20.910;2023-04-25T05:38:45;14.20;;;11.27;;
35330;SDS011;21441;52.190;20.910;2023-04-25T05:41:13;12.32;;;10.48;;
35330;SDS011;21441;52.190;20.910;2023-04-25T05:43:41;14.57;;;10.93;;
35330;SDS011;21441;52.190;20.910;2023-04-25T05:46:12;11.43;;;9.98;;
35330;SDS011;21441;52.190;20.910;2023-04-25T05:48:39;12.82;;;9.93;;
35330;SDS011;21441;52.190;20.910;2023-04-25T05:51:06;13.18;;;10.48;;
35330;SDS011;21441;52.190;20.910;2023-04-25T05:53:33;10.32;;;9.20;;
35330;SDS011;21441;52.190;20.910;2023-04-25T05:56:00;11.13;;;8.90;;
35330;SDS011;21441;52.190;20.910;2023-04-25T05:58:30;11.02;;;9.13;;
35330;SDS011;21441;52.190;20.910;2023-04-25T06:00:56;11.85;;;9.98;;
35330;SDS011;21441;52.190;20.910;2023-04-25T06:03:24;10.38;;;9.20;;
35330;SDS011;21441;52.190;20.910;2023-04-25T06:05:51;10.63;;;8.85;;
35330;SDS011;21441;52.190;20.910;2023-04-25T06:08:18;9.73;;;8.73;;
35330;SDS011;21441;52.190;20.910;2023-04-25T06:10:45;10.35;;;7.93;;
35330;SDS011;21441;52.190;20.910;2023-04-25T06:13:12;9.07;;;8.23;;
35330;SDS011;21441;52.190;20.910;2023-04-25T06:15:42;11.50;;;9.05;;
35330;SDS011;21441;52.190;20.910;2023-04-25T06:18:09;9.45;;;7.97;;
35330;SDS011;21441;52.190;20.910;2023-04-25T06:20:37;8.75;;;7.85;;
35330;SDS011;21441;52.190;20.910;2023-04-25T06:23:04;11.45;;;9.80;;
35330;SDS011;21441;52.190;20.910;2023-04-25T06:25:31;11.77;;;9.07;;
35330;SDS011;21441;52.190;20.910;2023-04-25T06:27:58;10.52;;;8.95;;
35330;SDS011;21441;52.190;20.910;2023-04-25T06:30:25;14.13;;;8.85;;
35330;SDS011;21441;52.190;20.910;2023-04-25T06:32:54;10.38;;;9.05;;
35330;SDS011;21441;52.190;20.910;2023-04-25T06:35:21;13.38;;;9.32;;
35330;SDS011;21441;52.190;20.910;2023-04-25T06:37:49;10.40;;;9.30;;
35330;SDS011;21441;52.190;20.910;2023-04-25T06:40:16;14.07;;;9.45;;
35330;SDS011;21441;52.190;20.910;2023-04-25T06:42:44;10.98;;;9.00;;
35330;SDS011;21441;52.190;20.910;2023-04-25T06:45:11;11.88;;;9.15;;
35330;SDS011;21441;52.190;20.910;2023-04-25T06:47:38;12.10;;;8.90;;
35330;SDS011;21441;52.190;20.910;2023-04-25T06:50:07;11.75;;;8.80;;
35330;SDS011;21441;52.190;20.910;2023-04-25T06:52:35;11.60;;;9.77;;
35330;SDS011;21441;52.190;20.910;2023-04-25T06:55:02;13.35;;;8.75;;
35330;SDS011;21441;52.190;20.910;2023-04-25T06:57:31;11.73;;;9.45;;
35330;SDS011;21441;52.190;20.910;2023-04-25T06:59:58;10.20;;;8.25;;
35330;SDS011;21441;52.190;20.910;2023-04-25T07:02:25;9.05;;;7.18;;
35330;SDS011;21441;52.190;20.910;2023-04-25T07:04:52;10.65;;;8.43;;
35330;SDS011;21441;52.190;20.910;2023-04-25T07:07:23;9.73;;;7.20;;
35330;SDS011;21441;52.190;20.910;2023-04-25T07:09:50;9.05;;;7.60;;
35330;SDS011;21441;52.190;20.910;2023-04-25T07:12:17;9.00;;;7.63;;
35330;SDS011;21441;52.190;20.910;2023-04-25T07:14:45;10.52;;;7.30;;
35330;SDS011;21441;52.190;20.910;2023-04-25T07:17:12;8.73;;;7.82;;
35330;SDS011;21441;52.190;20.910;2023-04-25T07:19:39;8.48;;;7.13;;
35330;SDS011;21441;52.190;20.910;2023-04-25T07:22:06;10.57;;;7.68;;
35330;SDS011;21441;52.190;20.910;2023-04-25T07:24:34;11.43;;;8.27;;
35330;SDS011;21441;52.190;20.910;2023-04-25T07:27:02;10.48;;;7.85;;
35330;SDS011;21441;52.190;20.910;2023-04-25T07:29:29;9.80;;;6.95;;
35330;SDS011;21441;52.190;20.910;2023-04-25T07:31:57;10.40;;;7.60;;
35330;SDS011;21441;52.190;20.910;2023-04-25T07:34:24;7.80;;;6.70;;
35330;SDS011;21441;52.190;20.910;2023-04-25T07:36:52;8.80;;;6.78;;
35330;SDS011;21441;52.190;20.910;2023-04-25T07:39:19;6.80;;;6.10;;
35330;SDS011;21441;52.190;20.910;2023-04-25T07:41:47;7.97;;;5.75;;
35330;SDS011;21441;52.190;20.910;2023-04-25T07:44:14;7.90;;;6.82;;
35330;SDS011;21441;52.190;20.910;2023-04-25T07:46:42;9.05;;;7.95;;
35330;SDS011;21441;52.190;20.910;2023-04-25T07:49:09;9.65;;;7.03;;
35330;SDS011;21441;52.190;20.910;2023-04-25T07:51:36;7.75;;;6.95;;
35330;SDS011;21441;52.190;20.910;2023-04-25T07:54:04;7.95;;;7.15;;
35330;SDS011;21441;52.190;20.910;2023-04-25T07:56:31;7.38;;;6.57;;
35330;SDS011;21441;52.190;20.910;2023-04-25T07:59:00;7.22;;;6.43;;
35330;SDS011;21441;52.190;20.910;2023-04-25T08:01:27;8.60;;;6.30;;
35330;SDS011;21441;52.190;20.910;2023-04-25T08:03:54;8.75;;;6.07;;
35330;SDS011;21441;52.190;20.910;2023-04-25T08:06:21;7.60;;;6.00;;
35330;SDS011;21441;52.190;20.910;2023-04-25T08:08:48;6.03;;;5.07;;
35330;SDS011;21441;52.190;20.910;2023-04-25T08:11:15;7.10;;;5.68;;
35330;SDS011;21441;52.190;20.910;2023-04-25T08:13:43;5.88;;;4.80;;
35330;SDS011;21441;52.190;20.910;2023-04-25T08:16:11;5.72;;;4.53;;
35330;SDS011;21441;52.190;20.910;2023-04-25T08:18:38;4.93;;;4.43;;
35330;SDS011;21441;52.190;20.910;2023-04-25T08:21:05;4.90;;;4.43;;
35330;SDS011;21441;52.190;20.910;2023-04-25T08:23:34;6.20;;;4.53;;
35330;SDS011;21441;52.190;20.910;2023-04-25T08:26:01;5.05;;;4.28;;
35330;SDS011;21441;52.190;20.910;2023-04-25T08:28:30;5.55;;;4.63;;
35330;SDS011;21441;52.190;20.910;2023-04-25T08:30:57;4.95;;;4.25;;
35330;SDS011;21441;52.190;20.910;2023-04-25T08:33:26;6.75;;;4.75;;
35330;SDS011;21441;52.190;20.910;2023-04-25T08:35:54;4.70;;;4.30;;
35330;SDS011;21441;52.190;20.910;2023-04-25T08:38:21;5.38;;;4.85;;
35330;SDS011;21441;52.190;20.910;2023-04-25T08:40:48;5.20;;;4.70;;
35330;SDS011;21441;52.190;20.910;2023-04-25T08:43:18;5.45;;;4.93;;
35330;SDS011;21441;52.190;20.910;2023-04-25T08:45:46;5.70;;;5.07;;
35330;SDS011;21441;52.190;20.910;2023-04-25T08:48:14;5.13;;;4.63;;
35330;SDS011;21441;52.190;20.910;2023-04-25T08:50:45;5.53;;;4.93;;
35330;SDS011;21441;52.190;20.910;2023-04-25T08:53:17;5.00;;;4.07;;
35330;SDS011;21441;52.190;20.910;2023-04-25T08:55:48;5.13;;;4.68;;
35330;SDS011;21441;52.190;20.910;2023-04-25T08:58:16;5.15;;;4.55;;
35330;SDS011;21441;52.190;20.910;2023-04-25T09:00:45;4.50;;;4.10;;
35330;SDS011;21441;52.190;20.910;2023-04-25T09:03:13;5.93;;;4.85;;
35330;SDS011;21441;52.190;20.910;2023-04-25T09:05:40;4.80;;;4.38;;
35330;SDS011;21441;52.190;20.910;2023-04-25T09:08:09;5.00;;;4.60;;
35330;SDS011;21441;52.190;20.910;2023-04-25T09:10:37;4.90;;;4.40;;
35330;SDS011;21441;52.190;20.910;2023-04-25T09:13:06;5.25;;;4.75;;
35330;SDS011;21441;52.190;20.910;2023-04-25T09:15:46;7.15;;;5.88;;
35330;SDS011;21441;52.190;20.910;2023-04-25T09:18:21;4.72;;;4.32;;
35330;SDS011;21441;52.190;20.910;2023-04-25T09:20:51;5.68;;;4.53;;
35330;SDS011;21441;52.190;20.910;2023-04-25T09:23:22;6.45;;;4.85;;
35330;SDS011;21441;52.190;20.910;2023-04-25T09:25:50;5.88;;;4.80;;
35330;SDS011;21441;52.190;20.910;2023-04-25T09:28:23;7.72;;;4.55;;
35330;SDS011;21441;52.190;20.910;2023-04-25T09:30:54;10.00;;;5.65;;
35330;SDS011;21441;52.190;20.910;2023-04-25T09:33:26;6.20;;;5.60;;
35330;SDS011;21441;52.190;20.910;2023-04-25T09:35:56;6.63;;;5.25;;
35330;SDS011;21441;52.190;20.910;2023-04-25T09:38:31;6.68;;;5.97;;
35330;SDS011;21441;52.190;20.910;2023-04-25T09:40:59;6.65;;;5.82;;
35330;SDS011;21441;52.190;20.910;2023-04-25T09:43:27;7.72;;;5.82;;
35330;SDS011;21441;52.190;20.910;2023-04-25T09:45:55;7.10;;;5.97;;
35330;SDS011;21441;52.190;20.910;2023-04-25T09:48:25;8.20;;;6.40;;
35330;SDS011;21441;52.190;20.910;2023-04-25T09:51:03;6.90;;;5.40;;
35330;SDS011;21441;52.190;20.910;2023-04-25T09:53:32;7.20;;;6.10;;
35330;SDS011;21441;52.190;20.910;2023-04-25T09:56:00;6.60;;;5.40;;
35330;SDS011;21441;52.190;20.910;2023-04-25T09:58:32;6.97;;;6.15;;
35330;SDS011;21441;52.190;20.910;2023-04-25T10:01:01;6.75;;;6.05;;
35330;SDS011;21441;52.190;20.910;2023-04-25T10:03:30;7.30;;;6.60;;
35330;SDS011;21441;52.190;20.910;2023-04-25T10:05:58;9.25;;;6.65;;
35330;SDS011;21441;52.190;20.910;2023-04-25T10:08:29;8.32;;;6.97;;
35330;SDS011;21441;52.190;20.910;2023-04-25T10:11:00;7.82;;;7.07;;
35330;SDS011;21441;52.190;20.910;2023-04-25T10:13:29;8.45;;;7.65;;
35330;SDS011;21441;52.190;20.910;2023-04-25T10:15:57;7.60;;;6.80;;
35330;SDS011;21441;52.190;20.910;2023-04-25T10:18:26;8.15;;;6.88;;
35330;SDS011;21441;52.190;20.910;2023-04-25T10:20:54;8.75;;;7.80;;
35330;SDS011;21441;52.190;20.910;2023-04-25T10:23:23;8.70;;;7.78;;
35330;SDS011;21441;52.190;20.910;2023-04-25T10:25:51;9.65;;;8.65;;
35330;SDS011;21441;52.190;20.910;2023-04-25T10:28:21;9.50;;;8.60;;
35330;SDS011;21441;52.190;20.910;2023-04-25T10:30:57;9.82;;;8.00;;
35330;SDS011;21441;52.190;20.910;2023-04-25T10:33:34;9.38;;;8.35;;
35330;SDS011;21441;52.190;20.910;2023-04-25T10:36:09;10.00;;;8.90;;
35330;SDS011;21441;52.190;20.910;2023-04-25T10:38:37;9.73;;;8.80;;
35330;SDS011;21441;52.190;20.910;2023-04-25T10:41:04;10.10;;;7.90;;
35330;SDS011;21441;52.190;20.910;2023-04-25T10:43:36;8.88;;;8.07;;
35330;SDS011;21441;52.190;20.910;2023-04-25T10:46:15;8.80;;;7.72;;
35330;SDS011;21441;52.190;20.910;2023-04-25T10:48:44;8.60;;;7.40;;
35330;SDS011;21441;52.190;20.910;2023-04-25T10:53:44;9.18;;;8.00;;
35330;SDS011;21441;52.190;20.910;2023-04-25T10:56:11;8.07;;;6.90;;
35330;SDS011;21441;52.190;20.910;2023-04-25T10:58:45;9.32;;;7.47;;
35330;SDS011;21441;52.190;20.910;2023-04-25T11:01:12;10.32;;;7.72;;
35330;SDS011;21441;52.190;20.910;2023-04-25T11:03:41;8.93;;;7.53;;
35330;SDS011;21441;52.190;20.910;2023-04-25T11:06:11;8.98;;;7.82;;
35330;SDS011;21441;52.190;20.910;2023-04-25T11:08:48;8.63;;;7.70;;
35330;SDS011;21441;52.190;20.910;2023-04-25T11:11:17;7.35;;;6.45;;
35330;SDS011;21441;52.190;20.910;2023-04-25T11:13:48;9.43;;;7.57;;
35330;SDS011;21441;52.190;20.910;2023-04-25T11:16:16;8.23;;;7.35;;
35330;SDS011;21441;52.190;20.910;2023-04-25T11:18:43;8.48;;;7.53;;
35330;SDS011;21441;52.190;20.910;2023-04-25T11:21:11;9.10;;;7.00;;
35330;SDS011;21441;52.190;20.910;2023-04-25T11:23:38;7.82;;;6.80;;
35330;SDS011;21441;52.190;20.910;2023-04-25T11:26:06;8.68;;;7.25;;
35330;SDS011;21441;52.190;20.910;2023-04-25T11:28:33;10.82;;;8.10;;
35330;SDS011;21441;52.190;20.910;2023-04-25T11:31:03;8.15;;;7.35;;
35330;SDS011;21441;52.190;20.910;2023-04-25T11:33:31;10.77;;;7.07;;
35330;SDS011;21441;52.190;20.910;2023-04-25T11:35:58;7.55;;;6.85;;
35330;SDS011;21441;52.190;20.910;2023-04-25T11:38:26;7.53;;;6.78;;
35330;SDS011;21441;52.190;20.910;2023-04-25T11:40:53;9.50;;;6.15;;
35330;SDS011;21441;52.190;20.910;2023-04-25T11:43:21;7.57;;;6.10;;
35330;SDS011;21441;52.190;20.910;2023-04-25T11:45:49;7.63;;;6.93;;
35330;SDS011;21441;52.190;20.910;2023-04-25T11:48:19;7.53;;;6.80;;
35330;SDS011;21441;52.190;20.910;2023-04-25T11:50:46;9.50;;;7.10;;
35330;SDS011;21441;52.190;20.910;2023-04-25T11:53:14;8.80;;;6.47;;
35330;SDS011;21441;52.190;20.910;2023-04-25T11:55:44;7.75;;;6.20;;
35330;SDS011;21441;52.190;20.910;2023-04-25T11:58:11;6.55;;;5.82;;
35330;SDS011;21441;52.190;20.910;2023-04-25T12:00:41;5.68;;;5.15;;
35330;SDS011;21441;52.190;20.910;2023-04-25T12:03:08;5.75;;;5.10;;
35330;SDS011;21441;52.190;20.910;2023-04-25T12:05:37;6.53;;;4.97;;
35330;SDS011;21441;52.190;20.910;2023-04-25T12:08:12;9.40;;;4.32;;
35330;SDS011;21441;52.190;20.910;2023-04-25T12:10:40;5.18;;;4.60;;
35330;SDS011;21441;52.190;20.910;2023-04-25T12:15:53;5.57;;;5.05;;
35330;SDS011;21441;52.190;20.910;2023-04-25T12:18:23;5.70;;;5.20;;
35330;SDS011;21441;52.190;20.910;2023-04-25T12:20:53;6.50;;;5.15;;
35330;SDS011;21441;52.190;20.910;2023-04-25T12:23:24;7.60;;;4.82;;
35330;SDS011;21441;52.190;20.910;2023-04-25T12:25:52;5.50;;;5.00;;
35330;SDS011;21441;52.190;20.910;2023-04-25T12:28:20;6.35;;;5.07;;
35330;SDS011;21441;52.190;20.910;2023-04-25T12:30:55;7.90;;;4.90;;
35330;SDS011;21441;52.190;20.910;2023-04-25T12:33:24;5.95;;;5.30;;
35330;SDS011;21441;52.190;20.910;2023-04-25T12:35:54;7.00;;;5.38;;
35330;SDS011;21441;52.190;20.910;2023-04-25T12:38:22;6.95;;;5.07;;
35330;SDS011;21441;52.190;20.910;2023-04-25T12:40:50;5.30;;;4.70;;
35330;SDS011;21441;52.190;20.910;2023-04-25T12:43:18;5.25;;;4.75;;
35330;SDS011;21441;52.190;20.910;2023-04-25T12:45:45;5.70;;;5.20;;
35330;SDS011;21441;52.190;20.910;2023-04-25T12:48:14;7.30;;;5.10;;
35330;SDS011;21441;52.190;20.910;2023-04-25T12:50:41;5.65;;;5.15;;
35330;SDS011;21441;52.190;20.910;2023-04-25T12:53:10;5.15;;;4.65;;
35330;SDS011;21441;52.190;20.910;2023-04-25T12:55:37;7.45;;;5.75;;
35330;SDS011;21441;52.190;20.910;2023-04-25T12:58:05;6.40;;;5.70;;
35330;SDS011;21441;52.190;20.910;2023-04-25T13:00:33;5.68;;;5.20;;
35330;SDS011;21441;52.190;20.910;2023-04-25T13:03:00;6.90;;;5.78;;
35330;SDS011;21441;52.190;20.910;2023-04-25T13:05:27;7.18;;;6.18;;
35330;SDS011;21441;52.190;20.910;2023-04-25T13:07:55;10.65;;;6.90;;
35330;SDS011;21441;52.190;20.910;2023-04-25T13:10:24;7.05;;;6.45;;
35330;SDS011;21441;52.190;20.910;2023-04-25T13:12:52;11.18;;;6.75;;
35330;SDS011;21441;52.190;20.910;2023-04-25T13:15:19;7.45;;;6.72;;
35330;SDS011;21441;52.190;20.910;2023-04-25T13:17:47;12.77;;;9.75;;
35330;SDS011;21441;52.190;20.910;2023-04-25T13:20:14;7.75;;;6.97;;
35330;SDS011;21441;52.190;20.910;2023-04-25T13:22:44;7.13;;;6.43;;
35330;SDS011;21441;52.190;20.910;2023-04-25T13:25:12;8.10;;;6.10;;
35330;SDS011;21441;52.190;20.910;2023-04-25T13:27:40;7.88;;;6.60;;
35330;SDS011;21441;52.190;20.910;2023-04-25T13:30:09;7.22;;;6.60;;
35330;SDS011;21441;52.190;20.910;2023-04-25T13:32:37;7.15;;;6.30;;
35330;SDS011;21441;52.190;20.910;2023-04-25T13:35:05;8.65;;;7.03;;
35330;SDS011;21441;52.190;20.910;2023-04-25T13:37:34;7.10;;;6.43;;
35330;SDS011;21441;52.190;20.910;2023-04-25T13:40:01;7.75;;;6.88;;
35330;SDS011;21441;52.190;20.910;2023-04-25T13:42:30;7.90;;;7.10;;
35330;SDS011;21441;52.190;20.910;2023-04-25T13:44:59;8.00;;;7.20;;
35330;SDS011;21441;52.190;20.910;2023-04-25T13:47:27;8.15;;;7.35;;
35330;SDS011;21441;52.190;20.910;2023-04-25T13:49:54;8.52;;;6.85;;
35330;SDS011;21441;52.190;20.910;2023-04-25T13:52:21;7.88;;;7.07;;
35330;SDS011;21441;52.190;20.910;2023-04-25T13:54:49;6.35;;;5.55;;
35330;SDS011;21441;52.190;20.910;2023-04-25T13:57:17;6.18;;;5.55;;
35330;SDS011;21441;52.190;20.910;2023-04-25T13:59:44;7.50;;;6.45;;
35330;SDS011;21441;52.190;20.910;2023-04-25T14:02:13;6.80;;;6.10;;
35330;SDS011;21441;52.190;20.910;2023-04-25T14:04:40;6.50;;;5.90;;
35330;SDS011;21441;52.190;20.910;2023-04-25T14:07:07;5.90;;;5.32;;
35330;SDS011;21441;52.190;20.910;2023-04-25T14:09:36;6.45;;;5.85;;
35330;SDS011;21441;52.190;20.910;2023-04-25T14:12:03;5.75;;;4.93;;
35330;SDS011;21441;52.190;20.910;2023-04-25T14:14:31;5.40;;;4.90;;
35330;SDS011;21441;52.190;20.910;2023-04-25T14:16:58;5.97;;;5.30;;
35330;SDS011;21441;52.190;20.910;2023-04-25T14:19:27;7.47;;;5.30;;
35330;SDS011;21441;52.190;20.910;2023-04-25T14:21:54;5.15;;;4.68;;
35330;SDS011;21441;52.190;20.910;2023-04-25T14:24:21;6.03;;;5.20;;
35330;SDS011;21441;52.190;20.910;2023-04-25T14:26:49;7.68;;;5.50;;
35330;SDS011;21441;52.190;20.910;2023-04-25T14:29:16;6.00;;;5.40;;
35330;SDS011;21441;52.190;20.910;2023-04-25T14:31:43;6.68;;;6.03;;
35330;SDS011;21441;52.190;20.910;2023-04-25T14:34:10;6.60;;;5.78;;